Time;durP1;ratioP1;P1;durP2;ratioP2;P2;SDS_P1;SDS_P2;PMS_P1;PMS_P2;Temp;Humidity;BMP_temperature;BMP_pressure;BME280_temperature;BME280_humidity;BME280_pressure;Samples;Min_cycle;Max_cycle;Signal;HPM_P1;HPM_P2
2023/11/01 05:00:25;;;;;;;0.90;0.90;;;7.40;99.90;;;;;;5921569;23;20583;31
2023/11/01 05:02:53;;;;;;;0.90;0.90;;;7.40;99.90;;;;;;4818262;29;20218;-73
2023/11/01 05:05:20;;;;;;;1.17;1.08;;;7.40;99.90;;;;;;4818798;29;20240;-73
2023/11/01 05:07:46;;;;;;;1.95;1.40;;;7.40;99.90;;;;;;4816411;29;20225;-73
2023/11/01 05:10:13;;;;;;;2.45;1.15;;;7.40;99.90;;;;;;4818235;29;20214;-73
2023/11/01 05:12:40;;;;;;;3.65;1.10;;;7.40;99.90;;;;;;4804735;29;20911;-73
2023/11/01 05:15:08;;;;;;;2.35;1.75;;;7.40;99.90;;;;;;4795572;29;20215;-73
2023/11/01 05:17:35;;;;;;;1.52;1.15;;;7.40;99.90;;;;;;4846635;23;20228;-75
2023/11/01 05:20:04;;;;;;;3.47;1.98;;;7.40;99.90;;;;;;4859184;29;20276;-74
2023/11/01 05:22:31;;;;;;;2.17;1.00;;;7.40;99.90;;;;;;4858616;29;20451;-73
2023/11/01 05:24:58;;;;;;;5.38;1.27;;;7.40;99.90;;;;;;4858697;29;20224;-73
2023/11/01 05:27:24;;;;;;;3.78;1.15;;;7.40;99.90;;;;;;4860845;29;20224;-74
2023/11/01 05:29:51;;;;;;;1.40;1.05;;;7.40;99.90;;;;;;4858564;29;20213;-73
2023/11/01 05:32:18;;;;;;;1.40;1.15;;;7.40;99.90;;;;;;4860218;29;20304;-74
2023/11/01 05:34:45;;;;;;;1.73;1.73;;;7.50;99.90;;;;;;4860196;29;20213;-74
2023/11/01 05:37:13;;;;;;;1.20;1.20;;;7.50;99.90;;;;;;4859796;29;20781;-74
2023/11/01 05:39:41;;;;;;;3.80;1.50;;;7.50;99.90;;;;;;4859845;29;20204;-75
2023/11/01 05:42:08;;;;;;;1.38;1.17;;;7.50;99.90;;;;;;4859859;29;20221;-74
2023/11/01 05:44:35;;;;;;;1.52;1.48;;;7.50;99.90;;;;;;4860026;29;20216;-73
2023/11/01 05:47:01;;;;;;;2.05;1.95;;;7.50;99.90;;;;;;4859206;29;20578;-73
2023/11/01 05:49:28;;;;;;;2.60;1.52;;;7.60;99.90;;;;;;4859830;29;20227;-74
2023/11/01 05:51:55;;;;;;;1.40;1.40;;;7.60;99.90;;;;;;4860784;29;20220;-74
2023/11/01 05:54:23;;;;;;;5.13;2.15;;;7.60;99.90;;;;;;4859871;29;20219;-74
2023/11/01 05:56:50;;;;;;;1.58;1.58;;;7.60;99.90;;;;;;4858893;29;20220;-74
2023/11/01 05:59:17;;;;;;;1.58;1.58;;;7.60;99.90;;;;;;4851578;29;20760;-73
2023/11/01 06:01:44;;;;;;;3.55;1.60;;;7.60;99.90;;;;;;4853815;29;20208;-73
2023/11/01 06:04:10;;;;;;;1.58;1.50;;;7.60;99.90;;;;;;4857560;29;20205;-74
2023/11/01 06:06:37;;;;;;;1.67;1.42;;;7.60;99.90;;;;;;4859252;29;20209;-73
2023/11/01 06:09:04;;;;;;;1.85;1.75;;;7.70;99.90;;;;;;4858441;29;20236;-73
2023/11/01 06:11:32;;;;;;;3.00;2.60;;;7.70;99.90;;;;;;4857238;29;20213;-73
2023/11/01 06:13:59;;;;;;;2.40;2.10;;;7.70;99.90;;;;;;4859192;29;20257;-73
2023/11/01 06:16:26;;;;;;;1.88;1.77;;;7.70;99.90;;;;;;4856651;29;20276;-73
2023/11/01 06:18:52;;;;;;;2.20;1.90;;;7.70;99.90;;;;;;4858411;29;20236;-73
2023/11/01 06:21:19;;;;;;;5.18;2.00;;;7.70;99.90;;;;;;4858145;29;20209;-74
2023/11/01 06:23:46;;;;;;;1.98;1.95;;;7.80;99.90;;;;;;4858819;29;20868;-74
2023/11/01 06:26:16;;;;;;;2.03;1.92;;;7.80;99.90;;;;;;4857476;29;20223;-74
2023/11/01 06:28:44;;;;;;;2.13;2.03;;;7.80;99.90;;;;;;4855258;29;20235;-74
2023/11/01 06:31:12;;;;;;;1.67;1.67;;;7.80;99.90;;;;;;4857128;29;20761;-73
2023/11/01 06:33:39;;;;;;;1.50;1.15;;;7.80;99.90;;;;;;4858445;29;20283;-72
2023/11/01 06:36:08;;;;;;;7.85;2.13;;;7.80;99.90;;;;;;4857892;29;20220;-73
2023/11/01 06:38:35;;;;;;;3.88;1.75;;;7.80;99.90;;;;;;4855385;29;20713;-73
2023/11/01 06:41:03;;;;;;;5.50;3.08;;;7.80;99.90;;;;;;4856646;29;20228;-73
2023/11/01 06:43:30;;;;;;;3.22;2.60;;;7.80;99.90;;;;;;4857606;29;20213;-72
2023/11/01 06:45:58;;;;;;;1.95;1.80;;;7.90;99.90;;;;;;4855563;29;20279;-75
2023/11/01 06:48:25;;;;;;;4.45;2.30;;;7.90;99.90;;;;;;4853917;29;20224;-72
2023/11/01 06:50:52;;;;;;;2.30;2.20;;;7.90;99.90;;;;;;4851734;29;20210;-73
2023/11/01 06:53:18;;;;;;;2.25;1.95;;;7.90;99.90;;;;;;4851864;29;20219;-72
2023/11/01 06:55:45;;;;;;;2.60;2.40;;;7.90;99.90;;;;;;4858210;29;20323;-73
2023/11/01 06:58:12;;;;;;;3.30;2.40;;;7.90;99.90;;;;;;4857223;29;20243;-73
2023/11/01 07:00:39;;;;;;;2.05;1.95;;;8.00;99.90;;;;;;4856771;29;20213;-73
2023/11/01 07:03:07;;;;;;;3.10;2.35;;;8.00;99.90;;;;;;4842837;29;20213;-72
2023/11/01 07:05:35;;;;;;;3.08;2.80;;;8.00;99.90;;;;;;4844466;29;20633;-72
2023/11/01 07:08:02;;;;;;;3.40;2.50;;;8.00;99.90;;;;;;4849881;29;20705;-73
2023/11/01 07:10:29;;;;;;;2.45;2.35;;;8.00;99.90;;;;;;4854682;29;20213;-73
2023/11/01 07:12:55;;;;;;;3.70;2.90;;;8.10;99.90;;;;;;4849931;29;20216;-73
2023/11/01 07:15:22;;;;;;;3.28;2.97;;;8.10;99.90;;;;;;4852174;29;20712;-73
2023/11/01 07:17:49;;;;;;;2.67;2.22;;;8.10;99.90;;;;;;4856813;29;20657;-73
2023/11/01 07:20:18;;;;;;;3.00;2.72;;;8.10;99.90;;;;;;4853632;29;20233;-73
2023/11/01 07:22:44;;;;;;;6.07;2.72;;;8.10;99.90;;;;;;4854524;29;20219;-73
2023/11/01 07:25:11;;;;;;;6.85;2.33;;;8.20;99.90;;;;;;4856854;29;20212;-73
2023/11/01 07:27:38;;;;;;;6.82;3.03;;;8.10;99.90;;;;;;4857766;29;20228;-72
2023/11/01 07:30:06;;;;;;;1.95;1.85;;;8.10;99.90;;;;;;4856085;29;20238;-73
2023/11/01 07:32:33;;;;;;;2.97;2.75;;;8.20;99.90;;;;;;4855768;29;20208;-75
2023/11/01 07:35:00;;;;;;;3.60;2.42;;;8.20;99.90;;;;;;4857156;29;20213;-75
2023/11/01 07:37:28;;;;;;;3.30;3.00;;;8.20;99.90;;;;;;4853759;29;20689;-73
2023/11/01 07:39:54;;;;;;;4.75;3.10;;;8.30;99.90;;;;;;4856219;29;20212;-74
2023/11/01 07:42:21;;;;;;;2.92;2.72;;;8.30;99.90;;;;;;4855267;29;20216;-75
2023/11/01 07:44:48;;;;;;;2.90;2.60;;;8.30;99.90;;;;;;4856914;29;20216;-71
2023/11/01 07:47:15;;;;;;;7.53;2.88;;;8.40;99.90;;;;;;4859591;29;20234;-74
2023/11/01 07:49:41;;;;;;;5.20;3.08;;;8.40;99.90;;;;;;4854991;29;20279;-75
2023/11/01 07:52:09;;;;;;;3.70;3.00;;;8.40;99.90;;;;;;4855942;29;20221;-74
2023/11/01 07:54:37;;;;;;;4.20;3.88;;;8.40;99.90;;;;;;4857583;29;20215;-74
2023/11/01 07:57:04;;;;;;;4.35;2.75;;;8.50;99.90;;;;;;4856803;29;20240;-74
2023/11/01 07:59:31;;;;;;;6.95;3.35;;;8.50;99.90;;;;;;4849536;29;20280;-74
2023/11/01 08:01:57;;;;;;;3.88;3.40;;;8.50;99.90;;;;;;4852502;29;20219;-74
2023/11/01 08:04:24;;;;;;;3.20;3.00;;;8.60;99.90;;;;;;4854091;29;20200;-74
2023/11/01 08:06:51;;;;;;;8.27;3.70;;;8.60;99.90;;;;;;4856174;29;20807;-75
2023/11/01 08:09:17;;;;;;;4.35;3.95;;;8.60;99.90;;;;;;4856131;29;20571;-74
2023/11/01 08:11:45;;;;;;;4.38;2.90;;;8.70;99.90;;;;;;4855350;29;20208;-75
2023/11/01 08:14:12;;;;;;;4.20;3.40;;;8.70;99.90;;;;;;4859220;29;20220;-75
2023/11/01 08:16:39;;;;;;;8.00;4.13;;;8.70;99.90;;;;;;4859823;29;20220;-75
2023/11/01 08:19:05;;;;;;;4.75;4.35;;;8.70;99.90;;;;;;4858048;29;20584;-75
2023/11/01 08:21:33;;;;;;;3.20;3.00;;;8.80;99.90;;;;;;4858710;29;20658;-73
2023/11/01 08:23:59;;;;;;;4.30;3.90;;;8.80;99.90;;;;;;4860544;29;20269;-73
2023/11/01 08:26:28;;;;;;;7.55;4.22;;;8.90;99.90;;;;;;4857842;29;20219;-73
2023/11/01 08:28:56;;;;;;;6.90;4.78;;;9.00;99.90;;;;;;4860223;29;20332;-73
2023/11/01 08:31:23;;;;;;;4.50;3.85;;;9.10;99.90;;;;;;4857403;29;20685;-74
2023/11/01 08:33:50;;;;;;;6.18;4.20;;;9.20;99.90;;;;;;4859717;29;20303;-73
2023/11/01 08:36:17;;;;;;;5.68;4.43;;;9.20;99.90;;;;;;4859737;29;20214;-73
2023/11/01 08:38:44;;;;;;;4.85;4.47;;;9.20;99.90;;;;;;4860225;29;20592;-73
2023/11/01 08:41:13;;;;;;;7.13;4.82;;;9.20;99.90;;;;;;4858942;29;20805;-73
2023/11/01 08:43:39;;;;;;;6.00;4.75;;;9.20;99.90;;;;;;4855468;29;20292;-73
2023/11/01 08:46:07;;;;;;;8.05;4.70;;;9.20;99.90;;;;;;4854484;29;20210;-72
2023/11/01 08:48:34;;;;;;;4.97;4.35;;;9.30;99.90;;;;;;4859012;29;20226;-72
2023/11/01 08:51:01;;;;;;;10.07;5.20;;;9.30;99.90;;;;;;4858824;29;20583;-72
2023/11/01 08:53:28;;;;;;;7.97;4.38;;;9.40;99.90;;;;;;4857244;29;20214;-72
2023/11/01 08:55:54;;;;;;;6.43;5.50;;;9.40;99.90;;;;;;4859317;29;20244;-73
2023/11/01 08:58:21;;;;;;;11.13;5.20;;;9.50;99.90;;;;;;4859540;29;20237;-73
2023/11/01 09:00:48;;;;;;;5.20;4.70;;;9.50;99.90;;;;;;4859223;29;20222;-73
2023/11/01 09:03:16;;;;;;;13.80;4.85;;;9.60;99.90;;;;;;4858763;29;20217;-73
2023/11/01 09:05:43;;;;;;;12.27;8.18;;;9.70;99.90;;;;;;4859241;29;20219;-73
2023/11/01 09:08:10;;;;;;;8.45;4.85;;;9.70;99.90;;;;;;4858185;29;20232;-73
2023/11/01 09:10:37;;;;;;;6.97;4.50;;;9.80;99.90;;;;;;4857891;29;20644;-73
2023/11/01 09:13:03;;;;;;;8.40;4.85;;;9.80;99.90;;;;;;4858860;29;20214;-73
2023/11/01 09:15:30;;;;;;;5.88;4.93;;;9.90;99.90;;;;;;4859127;29;20230;-73
2023/11/01 09:17:57;;;;;;;7.63;5.88;;;10.00;99.90;;;;;;4858778;29;20736;-74
2023/11/01 09:20:25;;;;;;;6.72;5.63;;;10.10;99.90;;;;;;4857252;29;20227;-73
2023/11/01 09:22:52;;;;;;;7.05;6.03;;;10.20;99.90;;;;;;4859368;29;20703;-73
2023/11/01 09:25:19;;;;;;;10.60;6.68;;;10.20;99.90;;;;;;4855002;29;20215;-73
2023/11/01 09:27:45;;;;;;;6.20;5.00;;;10.30;99.90;;;;;;4858152;29;20314;-73
2023/11/01 09:30:13;;;;;;;8.55;6.05;;;10.30;99.90;;;;;;4857013;29;20301;-73
2023/11/01 09:32:40;;;;;;;5.15;4.30;;;10.30;99.90;;;;;;4858483;29;20210;-73
2023/11/01 09:35:08;;;;;;;7.43;5.20;;;10.40;99.90;;;;;;4858627;29;20772;-73
2023/11/01 09:37:36;;;;;;;9.23;6.40;;;10.40;99.90;;;;;;4858237;29;20229;-73
2023/11/01 09:40:03;;;;;;;5.80;5.20;;;10.50;99.90;;;;;;4858206;29;20555;-73
2023/11/01 09:42:30;;;;;;;5.90;5.40;;;10.50;99.90;;;;;;4859068;29;20307;-73
2023/11/01 09:44:58;;;;;;;7.45;6.65;;;10.60;99.90;;;;;;4858774;29;20247;-73
2023/11/01 09:47:26;;;;;;;7.63;6.43;;;10.80;99.90;;;;;;4857719;29;20346;-73
2023/11/01 09:49:55;;;;;;;6.05;5.00;;;10.90;99.90;;;;;;4859782;29;20658;-73
2023/11/01 09:52:22;;;;;;;8.27;5.70;;;11.00;99.90;;;;;;4858568;29;20276;-73
2023/11/01 09:54:50;;;;;;;6.40;5.10;;;11.10;99.90;;;;;;4858729;29;20485;-73
2023/11/01 09:57:21;;;;;;;7.87;5.90;;;11.10;99.90;;;;;;4856945;29;20587;-73
2023/11/01 09:59:49;;;;;;;5.07;4.67;;;11.20;99.90;;;;;;4858045;29;20564;-72
2023/11/01 10:02:16;;;;;;;7.30;5.00;;;11.30;99.90;;;;;;4858085;29;20477;-73
2023/11/01 10:04:43;;;;;;;6.47;5.80;;;11.30;99.90;;;;;;4857919;29;20484;-75
2023/11/01 10:07:10;;;;;;;6.80;5.70;;;11.40;99.90;;;;;;4857213;29;20496;-73
2023/11/01 10:09:38;;;;;;;5.20;4.20;;;11.40;99.90;;;;;;4857240;29;20479;-73
2023/11/01 10:12:08;;;;;;;5.57;5.07;;;11.50;99.90;;;;;;4857570;29;20473;-73
2023/11/01 10:14:36;;;;;;;4.83;4.53;;;11.50;99.90;;;;;;4849772;29;20530;-73
2023/11/01 10:17:04;;;;;;;6.17;4.60;;;11.60;99.90;;;;;;4858693;29;20472;-73
2023/11/01 10:19:31;;;;;;;5.07;4.37;;;11.70;99.90;;;;;;4861170;29;21036;-73
2023/11/01 10:21:58;;;;;;;5.20;4.70;;;11.70;99.90;;;;;;4858677;29;20465;-73
2023/11/01 10:24:26;;;;;;;5.33;4.90;;;11.80;99.90;;;;;;4855640;29;20469;-74
2023/11/01 10:26:54;;;;;;;5.23;4.83;;;11.80;99.90;;;;;;4851603;29;20473;-73
2023/11/01 10:29:22;;;;;;;5.13;4.53;;;11.90;99.90;;;;;;4855069;29;20962;-74
2023/11/01 10:31:53;;;;;;;4.70;4.30;;;12.10;99.90;;;;;;4858012;29;20493;-73
2023/11/01 10:34:26;;;;;;;4.60;4.30;;;12.10;99.90;;;;;;4857339;29;20521;-74
2023/11/01 10:36:54;;;;;;;4.53;4.23;;;12.20;99.90;;;;;;4857889;29;20477;-73
2023/11/01 10:39:21;;;;;;;5.77;5.23;;;12.30;99.90;;;;;;4855887;29;20489;-73
2023/11/01 10:41:49;;;;;;;6.23;5.73;;;12.40;99.90;;;;;;4857195;29;20856;-74
2023/11/01 10:44:17;;;;;;;5.07;4.77;;;12.40;99.90;;;;;;4857235;29;20474;-73
2023/11/01 10:46:45;;;;;;;4.60;4.20;;;12.40;99.90;;;;;;4857042;29;20474;-73
2023/11/01 10:49:13;;;;;;;5.20;4.80;;;12.40;99.90;;;;;;4862786;29;20480;-73
2023/11/01 10:51:41;;;;;;;7.40;6.70;;;12.50;99.90;;;;;;4857258;29;20478;-72
2023/11/01 10:54:09;;;;;;;6.80;6.20;;;12.60;99.90;;;;;;4857250;29;20474;-72
2023/11/01 10:56:36;;;;;;;6.20;5.80;;;13.00;99.90;;;;;;4849231;29;20486;-74
2023/11/01 10:59:12;;;;;;;5.13;3.47;;;12.80;99.90;;;;;;4856224;29;20490;-73
2023/11/01 11:01:42;;;;;;;4.30;4.00;;;13.00;99.90;;;;;;4855060;29;20466;-73
2023/11/01 11:04:21;;;;;;;2.90;2.70;;;13.10;99.90;;;;;;4858084;29;20485;-73
2023/11/01 11:07:07;;;;;;;8.20;3.90;;;13.20;99.90;;;;;;4855218;29;20479;-73
2023/11/01 11:09:34;;;;;;;2.70;2.60;;;13.20;99.90;;;;;;4856569;29;20527;-72
2023/11/01 11:12:19;;;;;;;6.53;3.50;;;13.20;99.90;;;;;;4856529;29;20571;-73
2023/11/01 11:14:46;;;;;;;2.50;2.40;;;13.30;99.90;;;;;;4856523;29;20467;-73
2023/11/01 11:17:14;;;;;;;4.13;2.87;;;13.20;99.90;;;;;;4875335;23;20503;31
2023/11/01 11:20:14;;;;;;;3.43;3.33;;;13.10;99.90;;;;;;4837486;29;20913;-74
2023/11/01 11:23:13;;;;;;;2.53;2.33;;;13.00;99.90;;;;;;4837036;29;20979;-75
2023/11/01 11:25:51;;;;;;;3.10;3.00;;;12.90;99.90;;;;;;4836224;29;20476;-75
2023/11/01 11:28:39;;;;;;;7.17;6.47;;;12.90;99.90;;;;;;4831318;29;20530;-74
2023/11/01 11:31:07;;;;;;;3.53;3.30;;;12.80;99.90;;;;;;4828478;29;20620;-74
2023/11/01 11:33:35;;;;;;;2.30;2.20;;;12.80;99.90;;;;;;4822449;29;20514;-75
2023/11/01 11:36:12;;;;;;;5.00;4.50;;;12.80;99.90;;;;;;4832576;29;20485;-75
2023/11/01 11:38:47;;;;;;;3.23;3.03;;;12.70;99.90;;;;;;4830315;29;20499;-74
2023/11/01 11:41:14;;;;;;;2.37;2.27;;;12.70;99.90;;;;;;4832018;29;20481;-75
2023/11/01 11:44:04;;;;;;;3.20;3.10;;;12.70;99.90;;;;;;4828219;29;20467;-75
2023/11/01 11:46:32;;;;;;;2.40;2.30;;;12.70;99.90;;;;;;4829778;29;20476;-75
2023/11/01 11:48:59;;;;;;;2.03;2.03;;;12.60;99.90;;;;;;4835140;29;20868;-75
2023/11/01 11:51:29;;;;;;;2.90;2.60;;;12.60;99.90;;;;;;4830737;29;20555;-75
2023/11/01 11:53:55;;;;;;;2.30;2.20;;;12.60;99.90;;;;;;4823144;29;20475;-75
2023/11/01 11:56:23;;;;;;;3.63;1.97;;;12.60;99.90;;;;;;4824041;29;20518;-75
2023/11/01 11:58:50;;;;;;;2.20;2.10;;;12.50;99.90;;;;;;4833434;29;20503;-75
2023/11/01 12:01:24;;;;;;;1.57;1.47;;;12.50;99.90;;;;;;4826432;29;20484;-75
2023/11/01 12:03:51;;;;;;;1.60;1.60;;;12.50;99.90;;;;;;4827794;29;20516;-75
2023/11/01 12:06:20;;;;;;;1.80;1.70;;;12.50;99.90;;;;;;4824351;29;20474;-75
2023/11/01 12:08:49;;;;;;;1.30;1.30;;;12.50;99.90;;;;;;4830447;29;20537;-74
2023/11/01 12:11:16;;;;;;;5.77;5.10;;;12.50;99.90;;;;;;4829301;29;20474;-75
2023/11/01 12:13:44;;;;;;;2.60;2.60;;;12.40;99.90;;;;;;4821416;29;20479;-75
2023/11/01 12:16:11;;;;;;;4.97;4.20;;;12.40;99.90;;;;;;4823750;29;20531;-75
2023/11/01 12:18:38;;;;;;;5.40;4.50;;;12.40;99.90;;;;;;4837251;29;20494;-75
2023/11/01 12:21:12;;;;;;;10.70;8.60;;;12.40;99.90;;;;;;4838089;29;20846;-75
2023/11/01 12:23:44;;;;;;;7.70;6.40;;;12.50;99.90;;;;;;4821673;29;20473;-75
2023/11/01 12:26:12;;;;;;;6.70;6.27;;;12.50;99.90;;;;;;4828666;29;20483;-75
2023/11/01 12:28:39;;;;;;;2.20;2.10;;;12.50;99.90;;;;;;4827514;29;20505;-75
2023/11/01 12:31:16;;;;;;;3.83;3.40;;;12.60;99.90;;;;;;4835113;29;20478;-75
2023/11/01 12:33:43;;;;;;;2.73;2.53;;;12.60;99.90;;;;;;4822030;29;20477;-75
2023/11/01 12:36:09;;;;;;;10.93;7.97;;;12.60;99.90;;;;;;4825603;29;20479;-75
2023/11/01 12:38:36;;;;;;;6.50;5.97;;;12.60;99.90;;;;;;4828277;29;20514;-75
2023/11/01 12:41:12;;;;;;;11.53;8.00;;;12.60;99.90;;;;;;4834505;29;20478;-75
2023/11/01 12:43:38;;;;;;;4.00;3.80;;;12.60;99.90;;;;;;4825582;29;20484;-75
2023/11/01 12:46:05;;;;;;;4.97;4.67;;;12.60;99.90;;;;;;4833233;29;20466;-75
2023/11/01 12:48:32;;;;;;;2.30;2.20;;;12.60;99.90;;;;;;4835451;29;20474;-75
2023/11/01 12:50:59;;;;;;;4.20;2.20;;;12.60;99.90;;;;;;4823529;29;20494;-74
2023/11/01 12:53:25;;;;;;;4.50;4.20;;;12.70;99.90;;;;;;4822475;29;20808;-74
2023/11/01 12:55:52;;;;;;;2.40;2.30;;;12.60;99.90;;;;;;4831356;29;20920;-74
2023/11/01 12:58:20;;;;;;;3.40;3.10;;;12.60;99.90;;;;;;4838320;29;21020;-75
2023/11/01 13:00:47;;;;;;;5.37;4.90;;;12.60;99.90;;;;;;4826647;29;20475;-74
2023/11/01 13:03:14;;;;;;;7.50;6.77;;;12.60;99.90;;;;;;4827156;29;20515;-75
2023/11/01 13:05:40;;;;;;;6.20;5.60;;;12.60;99.90;;;;;;4826419;29;20474;-75
2023/11/01 13:08:08;;;;;;;8.70;6.13;;;12.60;99.90;;;;;;4831288;29;20504;-74
2023/11/01 13:10:34;;;;;;;2.50;2.43;;;12.60;99.90;;;;;;4831774;29;20477;-74
2023/11/01 13:13:01;;;;;;;2.20;1.60;;;12.60;99.90;;;;;;4836518;29;20470;-74
2023/11/01 13:15:29;;;;;;;4.17;3.97;;;12.60;99.90;;;;;;4841767;29;20478;-74
2023/11/01 13:17:57;;;;;;;2.87;2.67;;;12.70;99.90;;;;;;4841687;29;20497;-74
2023/11/01 13:20:24;;;;;;;9.87;4.87;;;12.70;99.90;;;;;;4829929;29;20525;-74
2023/11/01 13:22:51;;;;;;;5.37;4.97;;;12.80;99.90;;;;;;4839466;29;20478;-74
2023/11/01 13:25:18;;;;;;;2.77;2.60;;;12.80;99.90;;;;;;4836747;29;20569;-74
2023/11/01 13:27:45;;;;;;;6.30;4.30;;;12.80;99.90;;;;;;4828495;29;20530;-74
2023/11/01 13:30:12;;;;;;;5.77;5.20;;;12.80;99.90;;;;;;4826782;29;20474;-74
2023/11/01 13:32:40;;;;;;;8.10;5.70;;;12.80;99.90;;;;;;4823915;29;20572;-74
2023/11/01 13:35:08;;;;;;;6.93;5.90;;;12.80;99.90;;;;;;4832465;29;21300;-74
2023/11/01 13:37:34;;;;;;;3.63;3.43;;;12.90;99.90;;;;;;4829859;29;20499;-75
2023/11/01 13:40:01;;;;;;;3.43;3.23;;;12.90;99.90;;;;;;4830405;29;21065;-74
2023/11/01 13:42:30;;;;;;;3.60;3.50;;;12.90;99.90;;;;;;4833569;29;20512;-74
2023/11/01 13:44:56;;;;;;;2.80;2.70;;;12.90;99.90;;;;;;4824359;29;20840;-74
2023/11/01 13:47:23;;;;;;;4.00;3.70;;;13.00;99.90;;;;;;4830480;29;20490;-75
2023/11/01 13:49:51;;;;;;;1.97;1.87;;;13.00;99.90;;;;;;4824711;29;20489;-75
2023/11/01 13:52:18;;;;;;;3.93;3.73;;;13.00;99.90;;;;;;4826078;29;20482;-74
2023/11/01 13:54:45;;;;;;;3.63;3.13;;;13.00;99.90;;;;;;4826376;29;20482;-74
2023/11/01 13:57:11;;;;;;;1.70;1.70;;;13.00;99.90;;;;;;4833699;29;20487;-74
2023/11/01 13:59:38;;;;;;;1.97;1.87;;;13.00;99.90;;;;;;4824025;29;20838;-74
2023/11/01 14:02:05;;;;;;;1.83;1.83;;;13.00;99.90;;;;;;4822527;29;20490;-75
2023/11/01 14:04:32;;;;;;;3.40;2.20;;;13.10;99.90;;;;;;4827005;29;20477;-73
2023/11/01 14:07:00;;;;;;;2.63;2.43;;;13.00;99.90;;;;;;4827567;29;20534;-72
2023/11/01 14:09:27;;;;;;;3.10;2.87;;;13.00;99.90;;;;;;4836284;29;20495;-73
2023/11/01 14:11:54;;;;;;;3.10;2.53;;;13.00;99.90;;;;;;4826995;29;20483;-73
2023/11/01 14:14:22;;;;;;;1.30;1.30;;;13.00;99.90;;;;;;4825866;29;20482;-73
2023/11/01 14:16:49;;;;;;;4.50;1.93;;;13.00;99.90;;;;;;4835113;29;20477;-73
2023/11/01 14:19:16;;;;;;;4.20;3.87;;;13.00;99.90;;;;;;4839402;29;20501;-73
2023/11/01 14:21:42;;;;;;;2.20;1.77;;;13.00;99.90;;;;;;4837594;29;20995;-73
2023/11/01 14:24:11;;;;;;;1.67;1.67;;;13.00;99.90;;;;;;4827086;29;20471;-73
2023/11/01 14:26:39;;;;;;;2.87;2.77;;;12.90;99.90;;;;;;4826392;29;20544;-73
2023/11/01 14:29:06;;;;;;;2.10;2.10;;;12.90;99.90;;;;;;4829292;29;20543;-73
2023/11/01 14:31:32;;;;;;;1.63;1.63;;;12.90;99.90;;;;;;4825939;29;20485;-73
2023/11/01 14:33:59;;;;;;;2.07;1.97;;;12.90;99.90;;;;;;4828686;29;20474;-73
2023/11/01 14:36:26;;;;;;;2.27;2.27;;;12.80;99.90;;;;;;4832102;29;20975;-72
2023/11/01 14:38:53;;;;;;;3.70;3.30;;;12.80;99.90;;;;;;4828867;29;20498;-73
2023/11/01 14:41:21;;;;;;;5.30;2.23;;;12.80;99.90;;;;;;4835608;29;20478;-73
2023/11/01 14:43:47;;;;;;;2.30;2.20;;;12.90;99.90;;;;;;4838264;29;20562;-73
2023/11/01 14:46:14;;;;;;;2.53;2.33;;;12.90;99.90;;;;;;4834323;29;20478;-73
2023/11/01 14:48:43;;;;;;;5.30;4.60;;;12.90;99.90;;;;;;4833158;29;20497;-73
2023/11/01 14:51:10;;;;;;;3.27;3.07;;;12.90;99.90;;;;;;4833175;29;21027;-73
2023/11/01 14:53:36;;;;;;;7.50;6.80;;;12.90;99.90;;;;;;4829303;29;21019;-72
2023/11/01 14:56:09;;;;;;;3.57;3.37;;;12.80;99.90;;;;;;4828609;29;20488;-72
2023/11/01 14:58:37;;;;;;;1.80;1.80;;;12.90;99.90;;;;;;4828898;29;21051;-73
2023/11/01 15:01:08;;;;;;;1.63;1.53;;;12.80;99.90;;;;;;4829659;29;20505;-73
2023/11/01 15:03:34;;;;;;;1.83;1.73;;;12.80;99.90;;;;;;4828765;29;20478;-73
2023/11/01 15:06:01;;;;;;;2.73;2.60;;;12.90;99.90;;;;;;4831704;29;20493;-73
2023/11/01 15:08:28;;;;;;;4.53;4.23;;;12.80;99.90;;;;;;4824474;29;20584;-72
2023/11/01 15:10:55;;;;;;;2.83;2.63;;;12.80;99.90;;;;;;4826691;29;20485;-74
2023/11/01 15:13:21;;;;;;;3.37;3.17;;;12.80;99.90;;;;;;4831048;29;20475;-73
2023/11/01 15:15:49;;;;;;;2.80;2.60;;;12.80;99.90;;;;;;4834680;29;20483;-73
2023/11/01 15:18:16;;;;;;;4.40;4.10;;;12.80;99.90;;;;;;4830881;29;20513;-73
2023/11/01 15:20:43;;;;;;;5.03;3.70;;;12.80;99.90;;;;;;4830474;29;20508;-73
2023/11/01 15:23:09;;;;;;;3.43;3.03;;;12.80;99.90;;;;;;4828999;29;20470;-73
2023/11/01 15:25:36;;;;;;;4.03;2.50;;;12.70;99.90;;;;;;4826100;29;20484;-73
2023/11/01 15:28:03;;;;;;;5.37;4.67;;;12.70;99.90;;;;;;4825547;29;21045;-73
2023/11/01 15:30:30;;;;;;;6.97;6.07;;;12.70;99.90;;;;;;4831882;29;20531;-74
2023/11/01 15:32:58;;;;;;;5.87;4.80;;;12.70;99.90;;;;;;4830808;29;20502;-74
2023/11/01 15:35:25;;;;;;;3.10;2.80;;;12.70;99.90;;;;;;4826780;29;20469;-74
2023/11/01 15:37:52;;;;;;;5.70;4.87;;;12.70;99.90;;;;;;4829588;29;20577;-73
2023/11/01 15:40:19;;;;;;;5.90;5.23;;;12.70;99.90;;;;;;4832700;29;20847;-74
2023/11/01 15:42:45;;;;;;;7.90;5.00;;;12.70;99.90;;;;;;4827653;29;20474;-73
2023/11/01 15:45:12;;;;;;;7.03;6.07;;;12.60;99.90;;;;;;4835374;29;20850;-73
2023/11/01 15:47:39;;;;;;;5.93;5.40;;;12.60;99.90;;;;;;4829960;29;20502;-73
2023/11/01 15:50:08;;;;;;;4.07;3.63;;;12.60;99.90;;;;;;4828796;29;20481;-73
2023/11/01 15:52:35;;;;;;;27.47;8.43;;;12.60;99.90;;;;;;4824427;29;20463;-73
2023/11/01 15:55:03;;;;;;;8.40;5.60;;;12.50;99.90;;;;;;4829371;29;20482;-73
2023/11/01 15:57:29;;;;;;;5.40;3.47;;;12.50;99.90;;;;;;4828657;29;21118;-73
2023/11/01 15:59:56;;;;;;;7.50;3.90;;;12.50;99.90;;;;;;4826093;29;20495;-73
2023/11/01 16:02:23;;;;;;;3.73;3.53;;;12.50;99.90;;;;;;4826605;29;20479;-73
2023/11/01 16:04:50;;;;;;;3.33;3.07;;;12.40;99.90;;;;;;4828135;29;20489;-72
2023/11/01 16:07:18;;;;;;;2.87;2.67;;;12.40;99.90;;;;;;4829444;29;20473;-73
2023/11/01 16:09:45;;;;;;;3.60;3.30;;;12.40;99.90;;;;;;4837408;29;20481;-73
2023/11/01 16:12:11;;;;;;;3.23;2.67;;;12.40;99.90;;;;;;4837840;29;20478;-73
2023/11/01 16:14:39;;;;;;;3.93;3.40;;;12.40;99.90;;;;;;4837649;29;20492;-73
2023/11/01 16:17:09;;;;;;;3.40;3.30;;;12.30;99.90;;;;;;4833577;29;20470;-72
2023/11/01 16:19:36;;;;;;;3.57;3.27;;;12.30;99.90;;;;;;4829970;29;20921;-73
2023/11/01 16:22:03;;;;;;;3.23;2.77;;;12.30;99.90;;;;;;4826995;29;20510;-73
2023/11/01 16:24:31;;;;;;;3.23;3.07;;;12.20;99.90;;;;;;4828457;29;20474;-73
2023/11/01 16:26:58;;;;;;;3.40;3.10;;;12.20;99.90;;;;;;4824271;29;20493;-72
2023/11/01 16:29:25;;;;;;;3.30;3.10;;;12.20;99.90;;;;;;4826282;29;20502;-74
2023/11/01 16:31:51;;;;;;;3.60;3.20;;;12.10;99.90;;;;;;4831301;29;20483;-73
2023/11/01 16:34:18;;;;;;;3.33;3.13;;;12.10;99.90;;;;;;4834840;29;20500;-73
2023/11/01 16:36:45;;;;;;;4.07;3.57;;;12.10;99.90;;;;;;4834972;29;20474;-73
2023/11/01 16:39:12;;;;;;;3.80;3.17;;;12.10;99.90;;;;;;4833698;29;20487;-73
2023/11/01 16:41:40;;;;;;;4.73;4.43;;;12.00;99.90;;;;;;4834423;29;20474;-73
2023/11/01 16:44:07;;;;;;;6.10;4.50;;;12.10;99.90;;;;;;4827883;29;20489;-73
2023/11/01 16:46:39;;;;;;;4.70;3.20;;;12.00;99.90;;;;;;4829556;29;20481;-74
2023/11/01 16:49:06;;;;;;;3.17;3.07;;;12.00;99.90;;;;;;4831815;29;20904;-73
2023/11/01 16:51:35;;;;;;;4.03;3.73;;;12.00;99.90;;;;;;4835023;29;20476;-73
2023/11/01 16:54:01;;;;;;;3.37;3.10;;;12.00;99.90;;;;;;4832684;29;20549;-74
2023/11/01 16:56:28;;;;;;;5.40;3.37;;;12.10;99.90;;;;;;4834213;29;20481;-73
2023/11/01 16:58:56;;;;;;;3.97;3.50;;;12.00;99.90;;;;;;4829189;29;20507;-72
2023/11/01 17:01:23;;;;;;;4.57;4.27;;;12.00;99.90;;;;;;4835157;29;20662;-73
2023/11/01 17:03:49;;;;;;;3.90;3.70;;;12.00;99.90;;;;;;4830013;29;20488;-73
2023/11/01 17:06:16;;;;;;;6.70;6.10;;;12.00;99.90;;;;;;4829991;29;20482;-73
2023/11/01 17:08:43;;;;;;;3.47;3.27;;;12.00;99.90;;;;;;4827764;29;20510;-73
2023/11/01 17:11:10;;;;;;;3.30;3.00;;;12.00;99.90;;;;;;4831651;29;20898;-72
2023/11/01 17:13:37;;;;;;;6.83;3.40;;;12.00;99.90;;;;;;4829495;29;20474;-73
2023/11/01 17:16:08;;;;;;;3.50;3.10;;;12.00;99.90;;;;;;4833786;29;20977;-73
2023/11/01 17:18:36;;;;;;;3.13;2.83;;;12.00;99.90;;;;;;4832926;29;20600;-73
2023/11/01 17:21:02;;;;;;;5.53;3.43;;;12.00;99.90;;;;;;4824910;29;21051;-74
2023/11/01 17:23:29;;;;;;;3.67;3.40;;;12.00;99.90;;;;;;4831877;29;20593;-75
2023/11/01 17:26:22;;;;;;;3.10;2.90;;;12.00;99.90;;;;;;4833162;29;20470;-73
2023/11/01 17:28:49;;;;;;;3.20;3.00;;;12.00;99.90;;;;;;4826157;29;20493;-74
2023/11/01 17:31:35;;;;;;;4.27;3.90;;;11.90;99.90;;;;;;4829528;29;20488;-76
2023/11/01 17:34:02;;;;;;;4.20;3.77;;;11.90;99.90;;;;;;4832253;29;20488;-74
2023/11/01 17:36:30;;;;;;;5.53;3.10;;;11.90;99.90;;;;;;4835130;29;20485;-73
2023/11/01 17:38:58;;;;;;;6.43;4.00;;;11.90;99.90;;;;;;4827909;29;21018;-73
2023/11/01 17:41:57;;;;;;;5.50;4.23;;;11.90;99.90;;;;;;4827739;29;20552;-77
2023/11/01 17:44:26;;;;;;;4.87;3.77;;;11.90;99.90;;;;;;4829500;29;20469;-73
2023/11/01 17:46:55;;;;;;;4.63;4.20;;;11.80;99.90;;;;;;4826355;29;20543;-73
2023/11/01 17:49:47;;;;;;;3.63;3.33;;;11.80;99.90;;;;;;4830084;29;20495;-73
2023/11/01 17:52:22;;;;;;;5.10;4.60;;;11.80;99.90;;;;;;4831486;29;20507;-73
2023/11/01 17:54:49;;;;;;;4.30;3.67;;;11.80;99.90;;;;;;4833207;29;20485;-75